sensor_id;sensor_type;location;lat;lon;timestamp;temperature;humidity
16663;DHT22;8445;51.270;9.434;2023-08-08T00:02:16;9.90;99.90
16663;DHT22;8445;51.270;9.434;2023-08-08T00:04:42;9.80;99.90
16663;DHT22;8445;51.270;9.434;2023-08-08T00:07:07;9.80;99.90
16663;DHT22;8445;51.270;9.434;2023-08-08T00:09:33;9.60;99.90
16663;DHT22;8445;51.270;9.434;2023-08-08T00:11:59;9.50;99.90
16663;DHT22;8445;51.270;9.434;2023-08-08T00:14:25;9.40;99.90
16663;DHT22;8445;51.270;9.434;2023-08-08T00:16:51;9.40;99.90
16663;DHT22;8445;51.270;9.434;2023-08-08T00:19:17;9.40;99.90
16663;DHT22;8445;51.270;9.434;2023-08-08T00:21:43;9.30;99.90
16663;DHT22;8445;51.270;9.434;2023-08-08T00:24:09;9.30;99.90
16663;DHT22;8445;51.270;9.434;2023-08-08T00:26:35;9.40;99.90
16663;DHT22;8445;51.270;9.434;2023-08-08T00:29:00;9.40;99.90
16663;DHT22;8445;51.270;9.434;2023-08-08T00:31:26;9.40;99.90
16663;DHT22;8445;51.270;9.434;2023-08-08T00:33:52;9.40;99.90
16663;DHT22;8445;51.270;9.434;2023-08-08T00:36:18;9.40;99.90
16663;DHT22;8445;51.270;9.434;2023-08-08T00:38:44;9.40;99.90
16663;DHT22;8445;51.270;9.434;2023-08-08T00:41:10;9.30;99.90
16663;DHT22;8445;51.270;9.434;2023-08-08T00:43:36;9.30;99.90
16663;DHT22;8445;51.270;9.434;2023-08-08T00:46:02;9.40;99.90
16663;DHT22;8445;51.270;9.434;2023-08-08T00:48:28;9.40;99.90
16663;DHT22;8445;51.270;9.434;2023-08-08T00:50:54;9.40;99.90
16663;DHT22;8445;51.270;9.434;2023-08-08T00:53:21;9.50;99.90
16663;DHT22;8445;51.270;9.434;2023-08-08T00:55:48;9.50;99.90
16663;DHT22;8445;51.270;9.434;2023-08-08T00:58:15;9.50;99.90
16663;DHT22;8445;51.270;9.434;2023-08-08T01:00:41;9.50;99.90
16663;DHT22;8445;51.270;9.434;2023-08-08T01:03:07;9.60;99.90
16663;DHT22;8445;51.270;9.434;2023-08-08T01:05:39;9.60;99.90
16663;DHT22;8445;51.270;9.434;2023-08-08T01:08:16;9.60;99.90
16663;DHT22;8445;51.270;9.434;2023-08-08T01:10:48;9.60;99.90
16663;DHT22;8445;51.270;9.434;2023-08-08T01:13:18;9.60;99.90
16663;DHT22;8445;51.270;9.434;2023-08-08T01:15:49;9.70;99.90
16663;DHT22;8445;51.270;9.434;2023-08-08T01:18:16;9.70;99.90
16663;DHT22;8445;51.270;9.434;2023-08-08T01:20:44;9.70;99.90
16663;DHT22;8445;51.270;9.434;2023-08-08T01:23:24;9.70;99.90
16663;DHT22;8445;51.270;9.434;2023-08-08T01:25:57;9.60;99.90
16663;DHT22;8445;51.270;9.434;2023-08-08T01:28:26;9.60;99.90
16663;DHT22;8445;51.270;9.434;2023-08-08T01:30:52;9.60;99.90
16663;DHT22;8445;51.270;9.434;2023-08-08T01:33:19;9.60;99.90
16663;DHT22;8445;51.270;9.434;2023-08-08T01:35:47;9.70;99.90
16663;DHT22;8445;51.270;9.434;2023-08-08T01:38:38;9.80;99.90
16663;DHT22;8445;51.270;9.434;2023-08-08T01:41:07;9.90;99.90
16663;DHT22;8445;51.270;9.434;2023-08-08T01:43:36;10.00;99.90
16663;DHT22;8445;51.270;9.434;2023-08-08T01:46:04;10.10;99.90
16663;DHT22;8445;51.270;9.434;2023-08-08T01:48:30;10.20;99.90
16663;DHT22;8445;51.270;9.434;2023-08-08T01:50:56;10.20;99.90
16663;DHT22;8445;51.270;9.434;2023-08-08T01:53:22;10.40;99.90
16663;DHT22;8445;51.270;9.434;2023-08-08T01:55:48;10.40;99.90
16663;DHT22;8445;51.270;9.434;2023-08-08T01:58:17;10.50;99.90
16663;DHT22;8445;51.270;9.434;2023-08-08T02:00:43;10.60;99.90
16663;DHT22;8445;51.270;9.434;2023-08-08T02:03:11;10.60;99.90
16663;DHT22;8445;51.270;9.434;2023-08-08T02:05:37;10.70;99.90
16663;DHT22;8445;51.270;9.434;2023-08-08T02:08:03;10.70;99.90
16663;DHT22;8445;51.270;9.434;2023-08-08T02:10:30;10.80;99.90
16663;DHT22;8445;51.270;9.434;2023-08-08T02:12:56;10.80;99.90
16663;DHT22;8445;51.270;9.434;2023-08-08T02:15:21;10.80;99.90
16663;DHT22;8445;51.270;9.434;2023-08-08T02:17:50;10.90;99.90
16663;DHT22;8445;51.270;9.434;2023-08-08T02:20:16;10.90;99.90
16663;DHT22;8445;51.270;9.434;2023-08-08T02:22:44;11.00;99.90
16663;DHT22;8445;51.270;9.434;2023-08-08T02:25:10;11.00;99.90
16663;DHT22;8445;51.270;9.434;2023-08-08T02:27:36;11.00;99.90
16663;DHT22;8445;51.270;9.434;2023-08-08T02:30:02;11.00;99.90
16663;DHT22;8445;51.270;9.434;2023-08-08T02:32:28;11.10;99.90
16663;DHT22;8445;51.270;9.434;2023-08-08T02:34:54;11.10;99.90
16663;DHT22;8445;51.270;9.434;2023-08-08T02:37:20;11.10;99.90
16663;DHT22;8445;51.270;9.434;2023-08-08T02:39:46;11.20;99.90
16663;DHT22;8445;51.270;9.434;2023-08-08T02:42:14;11.10;99.90
16663;DHT22;8445;51.270;9.434;2023-08-08T02:44:40;11.20;99.90
16663;DHT22;8445;51.270;9.434;2023-08-08T02:47:06;11.20;99.90
16663;DHT22;8445;51.270;9.434;2023-08-08T02:49:32;11.20;99.90
16663;DHT22;8445;51.270;9.434;2023-08-08T02:52:00;11.30;99.90
16663;DHT22;8445;51.270;9.434;2023-08-08T02:54:28;11.30;99.90
16663;DHT22;8445;51.270;9.434;2023-08-08T02:56:54;11.30;99.90
16663;DHT22;8445;51.270;9.434;2023-08-08T02:59:20;11.30;99.90
16663;DHT22;8445;51.270;9.434;2023-08-08T03:01:47;11.20;99.90
16663;DHT22;8445;51.270;9.434;2023-08-08T03:04:16;11.30;99.90
16663;DHT22;8445;51.270;9.434;2023-08-08T03:06:43;11.20;99.90
16663;DHT22;8445;51.270;9.434;2023-08-08T03:09:09;11.20;99.90
16663;DHT22;8445;51.270;9.434;2023-08-08T03:11:37;11.20;99.90
16663;DHT22;8445;51.270;9.434;2023-08-08T03:14:08;11.20;99.90
16663;DHT22;8445;51.270;9.434;2023-08-08T03:16:35;11.20;99.90
16663;DHT22;8445;51.270;9.434;2023-08-08T03:19:02;11.20;99.90
16663;DHT22;8445;51.270;9.434;2023-08-08T03:21:28;11.20;99.90
16663;DHT22;8445;51.270;9.434;2023-08-08T03:23:54;11.30;99.90
16663;DHT22;8445;51.270;9.434;2023-08-08T03:26:21;11.30;99.90
16663;DHT22;8445;51.270;9.434;2023-08-08T03:28:46;11.30;99.90
16663;DHT22;8445;51.270;9.434;2023-08-08T03:31:19;11.20;99.90
16663;DHT22;8445;51.270;9.434;2023-08-08T03:33:46;11.10;99.90
16663;DHT22;8445;51.270;9.434;2023-08-08T03:36:15;11.00;99.90
16663;DHT22;8445;51.270;9.434;2023-08-08T03:38:45;11.00;99.90
16663;DHT22;8445;51.270;9.434;2023-08-08T03:41:13;11.00;99.90
16663;DHT22;8445;51.270;9.434;2023-08-08T03:43:42;11.00;99.90
16663;DHT22;8445;51.270;9.434;2023-08-08T03:46:08;11.00;99.90
16663;DHT22;8445;51.270;9.434;2023-08-08T03:48:34;11.00;99.90
16663;DHT22;8445;51.270;9.434;2023-08-08T03:51:01;11.00;99.90
16663;DHT22;8445;51.270;9.434;2023-08-08T03:53:27;11.10;99.90
16663;DHT22;8445;51.270;9.434;2023-08-08T03:55:53;11.10;99.90
16663;DHT22;8445;51.270;9.434;2023-08-08T03:58:20;11.10;99.90
16663;DHT22;8445;51.270;9.434;2023-08-08T04:00:46;11.10;99.90
16663;DHT22;8445;51.270;9.434;2023-08-08T04:03:16;11.10;99.90
16663;DHT22;8445;51.270;9.434;2023-08-08T04:05:46;11.10;99.90
16663;DHT22;8445;51.270;9.434;2023-08-08T04:08:15;11.10;99.90
16663;DHT22;8445;51.270;9.434;2023-08-08T04:16:57;11.10;99.90
16663;DHT22;8445;51.270;9.434;2023-08-08T04:19:38;11.10;99.90
16663;DHT22;8445;51.270;9.434;2023-08-08T04:22:19;11.10;99.90
16663;DHT22;8445;51.270;9.434;2023-08-08T04:24:59;11.00;99.90
16663;DHT22;8445;51.270;9.434;2023-08-08T04:28:39;11.00;99.90
16663;DHT22;8445;51.270;9.434;2023-08-08T04:34:50;10.90;99.90
16663;DHT22;8445;51.270;9.434;2023-08-08T04:37:54;11.00;99.90
16663;DHT22;8445;51.270;9.434;2023-08-08T04:40:31;11.10;99.90
16663;DHT22;8445;51.270;9.434;2023-08-08T04:43:11;11.30;99.90
16663;DHT22;8445;51.270;9.434;2023-08-08T04:45:49;11.30;99.90
16663;DHT22;8445;51.270;9.434;2023-08-08T04:49:12;11.40;99.90
16663;DHT22;8445;51.270;9.434;2023-08-08T04:52:03;11.40;99.90
16663;DHT22;8445;51.270;9.434;2023-08-08T04:58:48;11.50;99.90
16663;DHT22;8445;51.270;9.434;2023-08-08T05:01:34;11.50;99.90
16663;DHT22;8445;51.270;9.434;2023-08-08T05:04:18;11.50;99.90
16663;DHT22;8445;51.270;9.434;2023-08-08T05:07:00;11.50;99.90
16663;DHT22;8445;51.270;9.434;2023-08-08T05:09:34;11.60;99.90
16663;DHT22;8445;51.270;9.434;2023-08-08T05:12:25;11.60;99.90
16663;DHT22;8445;51.270;9.434;2023-08-08T05:15:26;11.60;99.90
16663;DHT22;8445;51.270;9.434;2023-08-08T05:18:00;11.60;99.90
16663;DHT22;8445;51.270;9.434;2023-08-08T05:20:54;11.60;99.90
16663;DHT22;8445;51.270;9.434;2023-08-08T05:23:30;11.60;99.90
16663;DHT22;8445;51.270;9.434;2023-08-08T05:25:57;11.60;99.90
16663;DHT22;8445;51.270;9.434;2023-08-08T05:28:23;11.60;99.90
16663;DHT22;8445;51.270;9.434;2023-08-08T05:31:09;11.70;99.90
16663;DHT22;8445;51.270;9.434;2023-08-08T05:34:07;11.70;99.90
16663;DHT22;8445;51.270;9.434;2023-08-08T05:37:00;11.90;99.90
16663;DHT22;8445;51.270;9.434;2023-08-08T05:39:39;12.00;99.90
16663;DHT22;8445;51.270;9.434;2023-08-08T05:43:13;12.10;99.90
16663;DHT22;8445;51.270;9.434;2023-08-08T05:46:48;12.20;99.90
16663;DHT22;8445;51.270;9.434;2023-08-08T05:50:01;12.10;99.90
16663;DHT22;8445;51.270;9.434;2023-08-08T05:56:17;12.00;99.90
16663;DHT22;8445;51.270;9.434;2023-08-08T05:58:55;12.10;99.90
16663;DHT22;8445;51.270;9.434;2023-08-08T06:01:32;12.00;99.90
16663;DHT22;8445;51.270;9.434;2023-08-08T06:04:01;12.00;99.90
16663;DHT22;8445;51.270;9.434;2023-08-08T06:06:29;11.90;99.90
16663;DHT22;8445;51.270;9.434;2023-08-08T06:08:55;11.90;99.90
16663;DHT22;8445;51.270;9.434;2023-08-08T06:11:26;11.90;99.90
16663;DHT22;8445;51.270;9.434;2023-08-08T06:14:43;12.00;99.90
16663;DHT22;8445;51.270;9.434;2023-08-08T06:17:23;12.10;99.90
16663;DHT22;8445;51.270;9.434;2023-08-08T06:20:09;12.00;99.90
16663;DHT22;8445;51.270;9.434;2023-08-08T06:22:41;12.10;99.90
16663;DHT22;8445;51.270;9.434;2023-08-08T06:25:20;12.20;99.90
16663;DHT22;8445;51.270;9.434;2023-08-08T06:28:02;12.20;99.90
16663;DHT22;8445;51.270;9.434;2023-08-08T06:30:46;12.30;99.90
16663;DHT22;8445;51.270;9.434;2023-08-08T06:33:46;12.40;99.90
16663;DHT22;8445;51.270;9.434;2023-08-08T06:36:26;12.60;99.90
16663;DHT22;8445;51.270;9.434;2023-08-08T06:39:22;12.70;99.90
16663;DHT22;8445;51.270;9.434;2023-08-08T06:42:11;12.80;99.90
16663;DHT22;8445;51.270;9.434;2023-08-08T06:44:57;12.90;99.90
16663;DHT22;8445;51.270;9.434;2023-08-08T06:47:38;13.00;99.90
16663;DHT22;8445;51.270;9.434;2023-08-08T06:50:21;13.00;99.90
16663;DHT22;8445;51.270;9.434;2023-08-08T06:53:22;13.00;99.90
16663;DHT22;8445;51.270;9.434;2023-08-08T06:56:24;13.20;99.90
16663;DHT22;8445;51.270;9.434;2023-08-08T06:59:08;13.30;99.90
16663;DHT22;8445;51.270;9.434;2023-08-08T07:01:49;13.40;99.90
16663;DHT22;8445;51.270;9.434;2023-08-08T07:07:48;13.70;99.90
16663;DHT22;8445;51.270;9.434;2023-08-08T07:10:50;13.80;99.90
16663;DHT22;8445;51.270;9.434;2023-08-08T07:13:47;14.00;99.90
16663;DHT22;8445;51.270;9.434;2023-08-08T07:16:35;14.10;99.90
16663;DHT22;8445;51.270;9.434;2023-08-08T07:19:13;14.40;99.90
16663;DHT22;8445;51.270;9.434;2023-08-08T07:22:00;14.60;99.90
16663;DHT22;8445;51.270;9.434;2023-08-08T07:28:08;14.80;99.90
16663;DHT22;8445;51.270;9.434;2023-08-08T07:30:52;14.80;99.90
16663;DHT22;8445;51.270;9.434;2023-08-08T07:33:45;14.70;99.90
16663;DHT22;8445;51.270;9.434;2023-08-08T07:36:40;14.70;99.90
16663;DHT22;8445;51.270;9.434;2023-08-08T07:39:10;15.00;99.90
16663;DHT22;8445;51.270;9.434;2023-08-08T07:41:40;15.10;99.90
16663;DHT22;8445;51.270;9.434;2023-08-08T07:44:30;15.10;99.90
16663;DHT22;8445;51.270;9.434;2023-08-08T07:50:15;15.10;99.90
16663;DHT22;8445;51.270;9.434;2023-08-08T07:52:53;15.30;99.90
16663;DHT22;8445;51.270;9.434;2023-08-08T07:55:58;15.50;99.90
16663;DHT22;8445;51.270;9.434;2023-08-08T07:59:05;16.10;99.90
16663;DHT22;8445;51.270;9.434;2023-08-08T08:01:57;16.50;99.90
16663;DHT22;8445;51.270;9.434;2023-08-08T08:04:30;16.50;99.90
16663;DHT22;8445;51.270;9.434;2023-08-08T08:07:12;16.60;99.90
16663;DHT22;8445;51.270;9.434;2023-08-08T08:12:49;16.90;99.90
16663;DHT22;8445;51.270;9.434;2023-08-08T08:15:35;16.90;99.90
16663;DHT22;8445;51.270;9.434;2023-08-08T08:18:15;16.80;99.90
16663;DHT22;8445;51.270;9.434;2023-08-08T08:21:35;16.60;99.90
16663;DHT22;8445;51.270;9.434;2023-08-08T08:24:20;16.50;99.90
16663;DHT22;8445;51.270;9.434;2023-08-08T08:26:54;16.50;99.90
16663;DHT22;8445;51.270;9.434;2023-08-08T08:29:56;16.60;99.90
16663;DHT22;8445;51.270;9.434;2023-08-08T08:32:39;16.70;99.90
16663;DHT22;8445;51.270;9.434;2023-08-08T08:35:53;16.80;99.90
16663;DHT22;8445;51.270;9.434;2023-08-08T08:41:35;17.00;99.90
16663;DHT22;8445;51.270;9.434;2023-08-08T08:44:41;17.20;99.90
16663;DHT22;8445;51.270;9.434;2023-08-08T08:47:32;17.50;99.90
16663;DHT22;8445;51.270;9.434;2023-08-08T08:50:55;18.00;99.90
16663;DHT22;8445;51.270;9.434;2023-08-08T08:54:42;18.00;99.90
16663;DHT22;8445;51.270;9.434;2023-08-08T08:57:29;17.90;99.90
16663;DHT22;8445;51.270;9.434;2023-08-08T09:03:58;18.30;99.90
16663;DHT22;8445;51.270;9.434;2023-08-08T09:06:36;18.40;99.90
16663;DHT22;8445;51.270;9.434;2023-08-08T09:09:12;18.80;99.90
16663;DHT22;8445;51.270;9.434;2023-08-08T09:16:37;18.70;99.90
16663;DHT22;8445;51.270;9.434;2023-08-08T09:19:55;18.80;99.90
16663;DHT22;8445;51.270;9.434;2023-08-08T09:23:10;19.20;99.80
16663;DHT22;8445;51.270;9.434;2023-08-08T09:26:06;19.40;99.90
16663;DHT22;8445;51.270;9.434;2023-08-08T09:29:23;19.60;99.90
16663;DHT22;8445;51.270;9.434;2023-08-08T09:32:42;19.90;99.90
16663;DHT22;8445;51.270;9.434;2023-08-08T09:35:53;20.00;99.90
16663;DHT22;8445;51.270;9.434;2023-08-08T09:38:55;19.90;99.90
16663;DHT22;8445;51.270;9.434;2023-08-08T09:41:53;19.70;98.90
16663;DHT22;8445;51.270;9.434;2023-08-08T09:45:11;19.50;95.80
16663;DHT22;8445;51.270;9.434;2023-08-08T09:47:42;19.50;98.30
16663;DHT22;8445;51.270;9.434;2023-08-08T09:51:32;19.40;99.10
16663;DHT22;8445;51.270;9.434;2023-08-08T09:54:41;19.20;98.50
16663;DHT22;8445;51.270;9.434;2023-08-08T09:57:18;18.70;98.80
16663;DHT22;8445;51.270;9.434;2023-08-08T10:03:26;18.50;94.30
16663;DHT22;8445;51.270;9.434;2023-08-08T10:06:13;18.60;98.20
16663;DHT22;8445;51.270;9.434;2023-08-08T10:08:53;18.90;98.10
16663;DHT22;8445;51.270;9.434;2023-08-08T10:11:31;19.20;96.00
16663;DHT22;8445;51.270;9.434;2023-08-08T10:14:15;19.40;94.70
16663;DHT22;8445;51.270;9.434;2023-08-08T10:16:53;19.50;95.30
16663;DHT22;8445;51.270;9.434;2023-08-08T10:19:49;19.50;95.20
16663;DHT22;8445;51.270;9.434;2023-08-08T10:30:11;20.50;93.70
16663;DHT22;8445;51.270;9.434;2023-08-08T10:33:18;20.50;87.20
16663;DHT22;8445;51.270;9.434;2023-08-08T10:36:26;20.40;92.60
16663;DHT22;8445;51.270;9.434;2023-08-08T10:40:02;20.50;92.00
16663;DHT22;8445;51.270;9.434;2023-08-08T10:43:09;20.50;91.30
16663;DHT22;8445;51.270;9.434;2023-08-08T10:46:13;20.70;93.40
16663;DHT22;8445;51.270;9.434;2023-08-08T10:49:18;21.00;92.50
16663;DHT22;8445;51.270;9.434;2023-08-08T10:52:24;21.40;91.90
16663;DHT22;8445;51.270;9.434;2023-08-08T10:55:41;21.70;91.10
16663;DHT22;8445;51.270;9.434;2023-08-08T10:58:54;21.50;83.00
16663;DHT22;8445;51.270;9.434;2023-08-08T11:02:01;21.10;82.60
16663;DHT22;8445;51.270;9.434;2023-08-08T11:05:30;20.80;82.20
16663;DHT22;8445;51.270;9.434;2023-08-08T11:11:44;20.00;88.40
16663;DHT22;8445;51.270;9.434;2023-08-08T11:14:32;19.80;83.10
16663;DHT22;8445;51.270;9.434;2023-08-08T11:17:48;19.50;87.00
16663;DHT22;8445;51.270;9.434;2023-08-08T11:20:47;19.40;89.50
16663;DHT22;8445;51.270;9.434;2023-08-08T11:23:29;19.30;87.50
16663;DHT22;8445;51.270;9.434;2023-08-08T11:26:43;19.20;90.10
16663;DHT22;8445;51.270;9.434;2023-08-08T11:29:35;18.90;90.30
16663;DHT22;8445;51.270;9.434;2023-08-08T11:32:24;18.70;90.60
16663;DHT22;8445;51.270;9.434;2023-08-08T11:35:32;18.70;91.30
16663;DHT22;8445;51.270;9.434;2023-08-08T11:38:44;18.90;90.60
16663;DHT22;8445;51.270;9.434;2023-08-08T11:41:35;19.10;91.40
16663;DHT22;8445;51.270;9.434;2023-08-08T11:44:40;19.30;90.40
16663;DHT22;8445;51.270;9.434;2023-08-08T11:47:28;19.50;90.10
16663;DHT22;8445;51.270;9.434;2023-08-08T11:50:23;19.80;90.20
16663;DHT22;8445;51.270;9.434;2023-08-08T11:52:57;20.00;89.10
16663;DHT22;8445;51.270;9.434;2023-08-08T11:55:35;20.20;89.20
16663;DHT22;8445;51.270;9.434;2023-08-08T11:58:16;20.30;87.20
16663;DHT22;8445;51.270;9.434;2023-08-08T12:00:46;20.10;85.90
16663;DHT22;8445;51.270;9.434;2023-08-08T12:03:28;19.90;87.20
16663;DHT22;8445;51.270;9.434;2023-08-08T12:05:55;19.90;86.60
16663;DHT22;8445;51.270;9.434;2023-08-08T12:08:23;20.00;87.60
16663;DHT22;8445;51.270;9.434;2023-08-08T12:10:52;20.10;88.50
16663;DHT22;8445;51.270;9.434;2023-08-08T12:13:31;20.10;89.00
16663;DHT22;8445;51.270;9.434;2023-08-08T12:16:13;20.10;89.20
16663;DHT22;8445;51.270;9.434;2023-08-08T12:18:59;20.00;90.50
16663;DHT22;8445;51.270;9.434;2023-08-08T12:21:43;20.00;91.20
16663;DHT22;8445;51.270;9.434;2023-08-08T12:24:12;20.00;91.70
16663;DHT22;8445;51.270;9.434;2023-08-08T12:26:56;20.00;92.20
16663;DHT22;8445;51.270;9.434;2023-08-08T12:29:49;20.00;92.10
16663;DHT22;8445;51.270;9.434;2023-08-08T12:33:00;20.10;91.90
16663;DHT22;8445;51.270;9.434;2023-08-08T12:36:07;20.10;93.00
16663;DHT22;8445;51.270;9.434;2023-08-08T12:52:33;21.90;86.90
16663;DHT22;8445;51.270;9.434;2023-08-08T12:56:04;22.00;87.00
16663;DHT22;8445;51.270;9.434;2023-08-08T12:59:06;22.20;80.40
16663;DHT22;8445;51.270;9.434;2023-08-08T13:02:09;22.40;88.40
16663;DHT22;8445;51.270;9.434;2023-08-08T13:05:29;22.60;88.90
16663;DHT22;8445;51.270;9.434;2023-08-08T13:08:38;23.00;88.70
16663;DHT22;8445;51.270;9.434;2023-08-08T13:15:15;22.80;82.60
16663;DHT22;8445;51.270;9.434;2023-08-08T13:18:54;22.40;79.90
16663;DHT22;8445;51.270;9.434;2023-08-08T13:21:56;22.20;77.20
16663;DHT22;8445;51.270;9.434;2023-08-08T13:24:36;21.80;80.90
16663;DHT22;8445;51.270;9.434;2023-08-08T13:27:14;21.50;80.80
16663;DHT22;8445;51.270;9.434;2023-08-08T13:30:22;21.30;80.50
16663;DHT22;8445;51.270;9.434;2023-08-08T13:33:16;21.70;80.80
16663;DHT22;8445;51.270;9.434;2023-08-08T13:39:46;21.70;75.40
16663;DHT22;8445;51.270;9.434;2023-08-08T13:42:16;21.60;78.90
16663;DHT22;8445;51.270;9.434;2023-08-08T13:45:07;21.50;76.40
16663;DHT22;8445;51.270;9.434;2023-08-08T13:47:41;21.30;74.90
16663;DHT22;8445;51.270;9.434;2023-08-08T13:50:09;21.10;73.80
16663;DHT22;8445;51.270;9.434;2023-08-08T13:52:46;20.80;76.30
16663;DHT22;8445;51.270;9.434;2023-08-08T13:55:19;20.70;76.80
16663;DHT22;8445;51.270;9.434;2023-08-08T13:57:52;20.60;76.30
16663;DHT22;8445;51.270;9.434;2023-08-08T14:00:34;20.60;74.30
16663;DHT22;8445;51.270;9.434;2023-08-08T14:03:07;20.40;74.90
16663;DHT22;8445;51.270;9.434;2023-08-08T14:05:41;20.20;74.50
16663;DHT22;8445;51.270;9.434;2023-08-08T14:08:22;19.90;74.50
16663;DHT22;8445;51.270;9.434;2023-08-08T14:11:10;19.70;74.00
16663;DHT22;8445;51.270;9.434;2023-08-08T14:14:12;19.70;74.90
16663;DHT22;8445;51.270;9.434;2023-08-08T14:17:09;19.60;75.80
16663;DHT22;8445;51.270;9.434;2023-08-08T14:19:36;19.70;76.80
16663;DHT22;8445;51.270;9.434;2023-08-08T14:22:21;19.90;76.20
16663;DHT22;8445;51.270;9.434;2023-08-08T14:28:12;20.60;73.60
16663;DHT22;8445;51.270;9.434;2023-08-08T14:31:10;20.70;73.10
16663;DHT22;8445;51.270;9.434;2023-08-08T14:37:14;20.80;73.90
16663;DHT22;8445;51.270;9.434;2023-08-08T14:39:57;20.80;72.20
16663;DHT22;8445;51.270;9.434;2023-08-08T14:42:47;20.80;72.10
16663;DHT22;8445;51.270;9.434;2023-08-08T14:45:49;20.70;72.20
16663;DHT22;8445;51.270;9.434;2023-08-08T14:48:16;20.60;72.10
16663;DHT22;8445;51.270;9.434;2023-08-08T14:50:44;20.50;72.80
16663;DHT22;8445;51.270;9.434;2023-08-08T14:53:14;20.30;71.40
16663;DHT22;8445;51.270;9.434;2023-08-08T14:56:05;20.20;72.60
16663;DHT22;8445;51.270;9.434;2023-08-08T14:58:52;20.10;73.50
16663;DHT22;8445;51.270;9.434;2023-08-08T15:01:24;20.10;72.90
16663;DHT22;8445;51.270;9.434;2023-08-08T15:03:57;20.10;73.80
16663;DHT22;8445;51.270;9.434;2023-08-08T15:06:25;20.20;74.30
16663;DHT22;8445;51.270;9.434;2023-08-08T15:09:09;20.40;74.50
16663;DHT22;8445;51.270;9.434;2023-08-08T15:11:52;20.70;74.70
16663;DHT22;8445;51.270;9.434;2023-08-08T15:14:30;20.80;74.10
16663;DHT22;8445;51.270;9.434;2023-08-08T15:17:01;20.70;74.10
16663;DHT22;8445;51.270;9.434;2023-08-08T15:19:38;20.70;75.10
16663;DHT22;8445;51.270;9.434;2023-08-08T15:22:30;20.90;75.90
16663;DHT22;8445;51.270;9.434;2023-08-08T15:25:01;21.10;75.40
16663;DHT22;8445;51.270;9.434;2023-08-08T15:27:42;21.30;74.70
16663;DHT22;8445;51.270;9.434;2023-08-08T15:30:22;21.40;74.60
16663;DHT22;8445;51.270;9.434;2023-08-08T15:33:19;21.10;74.20
16663;DHT22;8445;51.270;9.434;2023-08-08T15:36:22;20.80;76.30
16663;DHT22;8445;51.270;9.434;2023-08-08T15:39:02;20.60;75.70
16663;DHT22;8445;51.270;9.434;2023-08-08T15:44:59;20.30;76.10
16663;DHT22;8445;51.270;9.434;2023-08-08T15:47:47;20.10;76.80
16663;DHT22;8445;51.270;9.434;2023-08-08T15:50:32;19.90;77.60
16663;DHT22;8445;51.270;9.434;2023-08-08T15:53:03;19.70;78.30
16663;DHT22;8445;51.270;9.434;2023-08-08T15:55:49;19.40;78.60
16663;DHT22;8445;51.270;9.434;2023-08-08T15:58:41;19.20;79.30
16663;DHT22;8445;51.270;9.434;2023-08-08T16:01:14;19.20;80.10
16663;DHT22;8445;51.270;9.434;2023-08-08T16:04:10;19.10;79.90
16663;DHT22;8445;51.270;9.434;2023-08-08T16:06:49;18.90;79.90
16663;DHT22;8445;51.270;9.434;2023-08-08T16:12:28;18.60;80.80
16663;DHT22;8445;51.270;9.434;2023-08-08T16:15:01;18.50;81.00
16663;DHT22;8445;51.270;9.434;2023-08-08T16:17:56;18.30;81.40
16663;DHT22;8445;51.270;9.434;2023-08-08T16:20:44;18.00;83.20
16663;DHT22;8445;51.270;9.434;2023-08-08T16:23:18;17.80;83.60
16663;DHT22;8445;51.270;9.434;2023-08-08T16:26:21;17.70;84.70
16663;DHT22;8445;51.270;9.434;2023-08-08T16:29:02;17.80;85.10
16663;DHT22;8445;51.270;9.434;2023-08-08T16:31:51;18.10;85.20
16663;DHT22;8445;51.270;9.434;2023-08-08T16:34:47;18.10;84.70
16663;DHT22;8445;51.270;9.434;2023-08-08T16:37:28;17.90;85.00
16663;DHT22;8445;51.270;9.434;2023-08-08T16:40:09;17.80;85.70
16663;DHT22;8445;51.270;9.434;2023-08-08T16:43:04;17.70;86.80
16663;DHT22;8445;51.270;9.434;2023-08-08T16:45:45;17.50;89.00
16663;DHT22;8445;51.270;9.434;2023-08-08T16:48:17;17.30;86.40
16663;DHT22;8445;51.270;9.434;2023-08-08T16:51:11;17.20;87.80
16663;DHT22;8445;51.270;9.434;2023-08-08T16:54:13;17.10;88.50
16663;DHT22;8445;51.270;9.434;2023-08-08T16:57:28;17.10;90.00
16663;DHT22;8445;51.270;9.434;2023-08-08T17:03:17;17.50;90.30
16663;DHT22;8445;51.270;9.434;2023-08-08T17:06:11;17.60;89.50
16663;DHT22;8445;51.270;9.434;2023-08-08T17:09:16;17.80;89.10
16663;DHT22;8445;51.270;9.434;2023-08-08T17:11:58;18.00;88.10
16663;DHT22;8445;51.270;9.434;2023-08-08T17:15:10;18.10;87.40
16663;DHT22;8445;51.270;9.434;2023-08-08T17:18:07;18.10;86.50
16663;DHT22;8445;51.270;9.434;2023-08-08T17:21:58;18.00;86.60
16663;DHT22;8445;51.270;9.434;2023-08-08T17:25:20;17.70;87.80
16663;DHT22;8445;51.270;9.434;2023-08-08T17:28:12;17.60;87.90
16663;DHT22;8445;51.270;9.434;2023-08-08T17:30:47;17.60;88.30
16663;DHT22;8445;51.270;9.434;2023-08-08T17:37:42;17.50;89.10
16663;DHT22;8445;51.270;9.434;2023-08-08T17:40:42;17.30;89.20
16663;DHT22;8445;51.270;9.434;2023-08-08T17:43:39;17.20;90.20
16663;DHT22;8445;51.270;9.434;2023-08-08T17:46:44;17.30;91.90
16663;DHT22;8445;51.270;9.434;2023-08-08T17:49:38;17.30;91.70
16663;DHT22;8445;51.270;9.434;2023-08-08T17:52:07;17.20;90.20
16663;DHT22;8445;51.270;9.434;2023-08-08T17:54:36;17.00;90.40
16663;DHT22;8445;51.270;9.434;2023-08-08T17:57:14;16.70;90.50
16663;DHT22;8445;51.270;9.434;2023-08-08T18:00:04;16.50;91.00
16663;DHT22;8445;51.270;9.434;2023-08-08T18:02:36;16.30;91.30
16663;DHT22;8445;51.270;9.434;2023-08-08T18:05:11;16.10;91.50
16663;DHT22;8445;51.270;9.434;2023-08-08T18:07:57;15.90;92.10
16663;DHT22;8445;51.270;9.434;2023-08-08T18:10:25;15.70;92.20
16663;DHT22;8445;51.270;9.434;2023-08-08T18:13:09;15.60;92.80
16663;DHT22;8445;51.270;9.434;2023-08-08T18:15:43;15.40;92.80
16663;DHT22;8445;51.270;9.434;2023-08-08T18:18:12;15.40;93.50
16663;DHT22;8445;51.270;9.434;2023-08-08T18:20:41;15.20;93.30
16663;DHT22;8445;51.270;9.434;2023-08-08T18:23:49;15.10;93.40
16663;DHT22;8445;51.270;9.434;2023-08-08T18:26:37;15.00;94.30
16663;DHT22;8445;51.270;9.434;2023-08-08T18:29:19;14.90;93.90
16663;DHT22;8445;51.270;9.434;2023-08-08T18:31:53;14.80;94.40
16663;DHT22;8445;51.270;9.434;2023-08-08T18:34:51;14.70;94.70
16663;DHT22;8445;51.270;9.434;2023-08-08T18:37:23;14.60;94.10
16663;DHT22;8445;51.270;9.434;2023-08-08T18:40:16;14.60;94.90
16663;DHT22;8445;51.270;9.434;2023-08-08T18:42:49;14.50;95.40
16663;DHT22;8445;51.270;9.434;2023-08-08T18:45:32;14.50;95.10
16663;DHT22;8445;51.270;9.434;2023-08-08T18:48:06;14.40;95.10
16663;DHT22;8445;51.270;9.434;2023-08-08T18:50:40;14.30;95.50
16663;DHT22;8445;51.270;9.434;2023-08-08T18:53:14;14.30;96.30
16663;DHT22;8445;51.270;9.434;2023-08-08T18:55:53;14.30;96.20
16663;DHT22;8445;51.270;9.434;2023-08-08T18:58:43;14.20;96.00
16663;DHT22;8445;51.270;9.434;2023-08-08T19:01:12;14.20;96.90
16663;DHT22;8445;51.270;9.434;2023-08-08T19:04:01;14.20;96.90
16663;DHT22;8445;51.270;9.434;2023-08-08T19:06:50;14.20;97.10
16663;DHT22;8445;51.270;9.434;2023-08-08T19:09:56;14.10;98.40